createdAt,value
2022-08-10T00:00:59.610Z,96280.25
2022-08-10T00:03:29.328Z,96280.22
2022-08-10T00:06:00.458Z,96284.53
2022-08-10T00:08:29.981Z,96282.34
2022-08-10T00:10:59.912Z,96291.28
2022-08-10T00:13:31.554Z,96286.91
2022-08-10T00:16:01.231Z,96292.03
2022-08-10T00:18:35.197Z,96290.66
2022-08-10T00:21:10.040Z,96288.50
2022-08-10T00:23:40.392Z,96285.25
2022-08-10T00:26:10.004Z,96284.69
2022-08-10T00:28:39.974Z,96293.03
2022-08-10T00:31:09.448Z,96294.13
2022-08-10T00:33:38.929Z,96286.56
2022-08-10T00:36:10.416Z,96286.84
2022-08-10T00:38:39.910Z,96286.28
2022-08-10T00:41:10.525Z,96292.75
2022-08-10T00:43:40.033Z,96283.28
2022-08-10T00:46:09.540Z,96289.75
2022-08-10T00:48:39.085Z,96291.09
2022-08-10T00:51:10.243Z,96285.41
2022-08-10T00:53:39.864Z,96284.03
2022-08-10T00:57:09.993Z,96290.50
2022-08-10T00:58:59.656Z,96282.13
2022-08-10T01:02:08.793Z,96283.44
2022-08-10T01:04:36.426Z,96284.00
2022-08-10T01:07:30.241Z,96281.00
2022-08-10T01:10:17.134Z,96281.22
2022-08-10T01:12:56.141Z,96275.78
2022-08-10T01:15:33.628Z,96274.69
2022-08-10T01:18:11.183Z,96279.53
2022-08-10T01:21:17.057Z,96275.19
2022-08-10T01:24:15.232Z,96280.28
2022-08-10T01:27:27.833Z,96272.41
2022-08-10T01:30:05.623Z,96271.88
2022-08-10T01:32:49.718Z,96275.06
2022-08-10T01:35:30.244Z,96269.94
2022-08-10T01:38:08.334Z,96275.59
2022-08-10T01:40:47.928Z,96283.94
2022-08-10T01:43:21.251Z,96278.81
2022-08-10T01:45:58.985Z,96273.91
2022-08-10T01:48:32.895Z,96267.66
2022-08-10T01:51:13.692Z,96273.59
2022-08-10T01:53:52.042Z,96273.03
2022-08-10T01:56:25.841Z,96268.16
2022-08-10T01:59:04.871Z,96266.25
2022-08-10T02:01:43.969Z,96267.56
2022-08-10T02:04:17.273Z,96271.31
2022-08-10T02:06:52.667Z,96269.97
2022-08-10T02:09:28.313Z,96267.50
2022-08-10T02:12:08.559Z,96264.50
2022-08-10T02:14:49.259Z,96262.88
2022-08-10T02:17:59.748Z,96269.34
2022-08-10T02:20:22.435Z,96266.09
2022-08-10T02:22:57.889Z,96265.81
2022-08-10T02:25:41.475Z,96264.44
2022-08-10T02:28:29.396Z,96263.88
2022-08-10T02:31:06.591Z,96263.31
2022-08-10T02:33:56.651Z,96256.00
2022-08-10T02:36:32.748Z,96256.50
2022-08-10T02:39:07.008Z,96249.75
2022-08-10T02:45:01.596Z,96260.22
2022-08-10T02:45:23.854Z,96259.09
2022-08-10T02:47:55.421Z,96246.41
2022-08-10T02:50:30.812Z,96247.75
2022-08-10T02:53:07.189Z,96249.88
2022-08-10T02:55:46.580Z,96243.69
2022-08-10T02:58:27.493Z,96244.69
2022-08-10T03:01:01.396Z,96240.63
2022-08-10T03:03:46.805Z,96238.19
2022-08-10T03:06:27.729Z,96243.25
2022-08-10T03:08:58.393Z,96245.38
2022-08-10T03:12:34.926Z,96239.44
2022-08-10T03:14:24.942Z,96240.78
2022-08-10T03:16:57.646Z,96246.91
2022-08-10T03:20:34.706Z,96243.66
2022-08-10T03:22:20.994Z,96246.53
2022-08-10T03:24:51.459Z,96243.78
2022-08-10T03:27:21.649Z,96244.84
2022-08-10T03:30:31.706Z,96240.53
2022-08-10T03:32:44.110Z,96243.72
2022-08-10T03:35:14.761Z,96243.97
2022-08-10T03:37:45.697Z,96237.25
2022-08-10T03:40:15.585Z,96241.00
2022-08-10T03:42:48.286Z,96235.06
2022-08-10T03:45:18.471Z,96238.81
2022-08-10T03:47:50.144Z,96243.38
2022-08-10T03:50:27.626Z,96231.00
2022-08-10T03:53:25.186Z,96235.81
2022-08-10T03:56:29.590Z,96244.38
2022-08-10T03:58:52.661Z,96235.75
2022-08-10T04:02:41.816Z,96229.22
2022-08-10T04:04:16.543Z,96238.38
2022-08-10T04:06:54.518Z,96237.56
2022-08-10T04:09:56.150Z,96245.84
2022-08-10T04:12:19.916Z,96246.66
2022-08-10T04:14:52.485Z,96244.56
2022-08-10T04:18:03.106Z,96246.19
2022-08-10T04:20:21.412Z,96247.31
2022-08-10T04:22:54.710Z,96250.56
2022-08-10T04:25:27.618Z,96249.56
2022-08-10T04:27:57.831Z,96266.59
2022-08-10T04:30:29.389Z,96255.06
2022-08-10T04:33:06.875Z,96255.44
2022-08-10T04:35:36.796Z,96255.25
2022-08-10T04:38:07.008Z,96249.38
2022-08-10T04:40:38.922Z,96244.38
2022-08-10T04:43:13.299Z,96252.00
2022-08-10T04:45:49.283Z,96259.66
2022-08-10T04:48:43.039Z,96263.84
2022-08-10T04:51:18.930Z,96260.69
2022-08-10T04:54:03.203Z,96259.22
2022-08-10T04:56:40.225Z,96251.75
2022-08-10T04:59:12.472Z,96265.06
2022-08-10T05:02:29.067Z,96267.28
2022-08-10T05:04:37.449Z,96268.19
2022-08-10T05:07:10.933Z,96266.63
2022-08-10T05:10:00.374Z,96261.81
2022-08-10T05:12:35.612Z,96272.41
2022-08-10T05:15:09.490Z,96275.38
2022-08-10T05:17:43.530Z,96272.47
2022-08-10T05:20:31.881Z,96269.28
2022-08-10T05:23:01.375Z,96264.44
2022-08-10T05:25:32.851Z,96269.34
2022-08-10T05:28:08.412Z,96266.69
2022-08-10T05:30:38.085Z,96262.09
2022-08-10T05:33:08.989Z,96264.03
2022-08-10T05:35:52.872Z,96266.78
2022-08-10T05:38:29.395Z,96269.78
2022-08-10T05:40:59.775Z,96264.66
2022-08-10T05:43:30.747Z,96268.19
2022-08-10T05:46:18.958Z,96268.78
2022-08-10T05:48:59.729Z,96265.28
2022-08-10T05:51:31.451Z,96269.59
2022-08-10T05:54:06.149Z,96273.38
2022-08-10T05:56:54.698Z,96273.38
2022-08-10T06:00:29.592Z,96276.06
2022-08-10T06:02:36.404Z,96271.19
2022-08-10T06:05:10.262Z,96268.47
2022-08-10T06:07:46.872Z,96269.25
2022-08-10T06:10:28.541Z,96264.38
2022-08-10T06:13:29.745Z,96269.19
2022-08-10T06:16:09.424Z,96264.84
2022-08-10T06:18:40.118Z,96266.41
2022-08-10T06:21:10.536Z,96265.28
2022-08-10T06:23:41.331Z,96261.94
2022-08-10T06:26:14.895Z,96259.19
2022-08-10T06:29:03.791Z,96258.56
2022-08-10T06:31:48.434Z,96259.84
2022-08-10T06:34:28.377Z,96257.56
2022-08-10T06:37:03.982Z,96250.16
2022-08-10T06:39:35.573Z,96259.31
2022-08-10T06:42:18.475Z,96252.41
2022-08-10T06:44:59.551Z,96249.06
2022-08-10T06:47:40.765Z,96258.41
2022-08-10T06:50:35.137Z,96259.38
2022-08-10T06:53:13.469Z,96253.25
2022-08-10T06:55:56.820Z,96253.09
2022-08-10T06:58:35.277Z,96242.84
2022-08-10T07:01:10.427Z,96238.31
2022-08-10T07:03:48.204Z,96233.81
2022-08-10T07:06:20.114Z,96240.72
2022-08-10T07:08:52.344Z,96241.59
2022-08-10T07:11:23.612Z,96245.50
2022-08-10T07:14:14.437Z,96234.97
2022-08-10T07:16:48.844Z,96244.19
2022-08-10T07:19:22.512Z,96233.91
2022-08-10T07:21:52.835Z,96233.34
2022-08-10T07:24:28.603Z,96237.44
2022-08-10T07:26:59.683Z,96228.97
2022-08-10T07:29:53.821Z,96227.25
2022-08-10T07:32:23.594Z,96227.47
2022-08-10T07:34:57.388Z,96224.44
2022-08-10T07:37:29.812Z,96223.31
2022-08-10T07:40:03.411Z,96221.66
2022-08-10T07:42:39.829Z,96217.50
2022-08-10T07:45:13.200Z,96221.47
2022-08-10T07:47:54.354Z,96223.53
2022-08-10T07:50:28.433Z,96223.81
2022-08-10T07:53:09.807Z,96229.91
2022-08-10T07:56:04.215Z,96225.66
2022-08-10T07:58:46.127Z,96221.41
2022-08-10T08:01:18.974Z,96230.50
2022-08-10T08:04:05.741Z,96230.13
2022-08-10T08:06:43.167Z,96220.34
2022-08-10T08:09:12.992Z,96230.56
2022-08-10T08:11:45.308Z,96222.84
2022-08-10T08:14:17.103Z,96234.47
2022-08-10T08:16:51.815Z,96228.50
2022-08-10T08:19:35.963Z,96219.72
2022-08-10T08:24:30.564Z,96219.53
2022-08-10T08:25:01.483Z,96221.31
2022-08-10T08:27:32.594Z,96225.19
2022-08-10T08:30:03.146Z,96229.50
2022-08-10T08:32:37.825Z,96224.03
2022-08-10T08:35:12.145Z,96221.75
2022-08-10T08:38:30.178Z,96229.66
2022-08-10T08:40:37.837Z,96225.19
2022-08-10T08:43:50.553Z,96222.38
2022-08-10T08:47:04.837Z,96223.81
2022-08-10T08:50:33.839Z,96220.63
2022-08-10T08:54:01.026Z,96220.31
2022-08-10T08:56:29.852Z,96216.63
2022-08-10T08:59:31.551Z,96213.31
2022-08-10T09:02:19.120Z,96211.66
2022-08-10T09:05:18.141Z,96218.47
2022-08-10T09:08:31.488Z,96211.72
2022-08-10T09:11:05.773Z,96205.75
2022-08-10T09:13:45.690Z,96208.84
2022-08-10T09:16:31.269Z,96205.34
2022-08-10T09:19:19.629Z,96207.88
2022-08-10T09:22:17.991Z,96209.50
2022-08-10T09:25:15.861Z,96211.84
2022-08-10T09:27:49.240Z,96202.72
2022-08-10T09:30:34.763Z,96212.44
2022-08-10T09:36:20.169Z,96201.34
2022-08-10T09:36:33.109Z,96200.97
2022-08-10T09:40:56.531Z,96207.88
2022-08-10T09:42:40.254Z,96204.53
2022-08-10T09:45:21.728Z,96203.63
2022-08-10T09:48:16.617Z,96197.88
2022-08-10T09:54:07.732Z,96201.22
2022-08-10T09:57:03.002Z,96203.38
2022-08-10T10:00:09.092Z,96208.44
2022-08-10T10:03:02.765Z,96199.72
2022-08-10T10:05:50.257Z,96208.25
2022-08-10T10:08:33.790Z,96201.13
2022-08-10T10:11:16.235Z,96199.69
2022-08-10T10:14:04.395Z,96198.81
2022-08-10T10:16:54.346Z,96196.53
2022-08-10T10:19:50.257Z,96192.56
2022-08-10T10:22:43.700Z,96193.03
2022-08-10T10:25:50.118Z,96192.03
2022-08-10T10:29:09.838Z,96194.84
2022-08-10T10:31:33.130Z,96188.44
2022-08-10T10:34:24.992Z,96185.88
2022-08-10T10:36:56.237Z,96187.28
2022-08-10T10:39:28.383Z,96190.06
2022-08-10T10:42:35.065Z,96173.91
2022-08-10T10:45:19.760Z,96169.81
2022-08-10T10:48:17.863Z,96162.19
2022-08-10T10:51:12.972Z,96169.75
2022-08-10T10:53:55.008Z,96170.34
2022-08-10T10:56:37.545Z,96173.00
2022-08-10T10:59:53.674Z,96168.09
2022-08-10T11:02:22.737Z,96173.44
2022-08-10T11:05:09.930Z,96169.13
2022-08-10T11:07:53.496Z,96175.91
2022-08-10T11:10:34.761Z,96172.44
2022-08-10T11:14:24.651Z,96173.22
2022-08-10T11:16:29.130Z,96168.81
2022-08-10T11:19:14.132Z,96166.63
2022-08-10T11:22:02.245Z,96181.91
2022-08-10T11:24:50.407Z,96179.63
2022-08-10T11:27:34.718Z,96192.91
2022-08-10T11:30:10.584Z,96178.16
2022-08-10T11:32:58.418Z,96174.84
2022-08-10T11:35:44.156Z,96172.19
2022-08-10T11:38:31.330Z,96178.25
2022-08-10T11:42:10.070Z,96166.31
2022-08-10T11:44:17.404Z,96176.59
